sensor_id;sensor_type;location;lat;lon;timestamp;pressure;altitude;pressure_sealevel;temperature;humidity
77112;BME280;66064;50.226;14.344;2023-05-10T00:01:39;99156.66;;;9.09;63.52
77112;BME280;66064;50.226;14.344;2023-05-10T00:04:05;99152.13;;;9.02;63.55
77112;BME280;66064;50.226;14.344;2023-05-10T00:06:31;99145.91;;;8.98;63.64
77112;BME280;66064;50.226;14.344;2023-05-10T00:08:57;99137.94;;;8.98;63.34
77112;BME280;66064;50.226;14.344;2023-05-10T00:11:23;99135.22;;;8.91;64.20
77112;BME280;66064;50.226;14.344;2023-05-10T00:13:49;99152.97;;;8.96;64.01
77112;BME280;66064;50.226;14.344;2023-05-10T00:16:15;99164.38;;;8.86;64.33
77112;BME280;66064;50.226;14.344;2023-05-10T00:18:41;99137.91;;;8.92;64.50
77112;BME280;66064;50.226;14.344;2023-05-10T00:21:07;99135.06;;;8.78;64.34
77112;BME280;66064;50.226;14.344;2023-05-10T00:23:33;99143.88;;;8.73;64.82
77112;BME280;66064;50.226;14.344;2023-05-10T00:25:59;99141.16;;;8.67;65.24
77112;BME280;66064;50.226;14.344;2023-05-10T00:28:27;99131.38;;;8.60;64.96
77112;BME280;66064;50.226;14.344;2023-05-10T00:30:53;99135.78;;;8.61;65.91
77112;BME280;66064;50.226;14.344;2023-05-10T00:33:20;99135.69;;;8.52;65.51
77112;BME280;66064;50.226;14.344;2023-05-10T00:35:46;99131.16;;;8.41;65.92
77112;BME280;66064;50.226;14.344;2023-05-10T00:38:12;99132.00;;;8.39;66.28
77112;BME280;66064;50.226;14.344;2023-05-10T00:40:38;99123.13;;;8.35;65.97
77112;BME280;66064;50.226;14.344;2023-05-10T00:43:04;99139.09;;;8.41;66.27
77112;BME280;66064;50.226;14.344;2023-05-10T00:45:32;99129.38;;;8.40;66.37
77112;BME280;66064;50.226;14.344;2023-05-10T00:48:01;99143.47;;;8.38;66.74
77112;BME280;66064;50.226;14.344;2023-05-10T00:50:28;99107.94;;;8.28;66.38
77112;BME280;66064;50.226;14.344;2023-05-10T00:52:54;99124.78;;;8.30;66.55
77112;BME280;66064;50.226;14.344;2023-05-10T00:55:20;99117.78;;;8.32;66.15
77112;BME280;66064;50.226;14.344;2023-05-10T00:57:47;99116.78;;;8.26;66.91
77112;BME280;66064;50.226;14.344;2023-05-10T01:00:13;99120.47;;;8.35;66.09
77112;BME280;66064;50.226;14.344;2023-05-10T01:02:46;99110.69;;;8.33;66.59
77112;BME280;66064;50.226;14.344;2023-05-10T01:05:13;99117.69;;;8.29;66.40
77112;BME280;66064;50.226;14.344;2023-05-10T01:07:39;99110.59;;;8.28;66.62
77112;BME280;66064;50.226;14.344;2023-05-10T01:10:06;99109.63;;;8.19;67.21
77112;BME280;66064;50.226;14.344;2023-05-10T01:12:39;99119.38;;;8.21;66.77
77112;BME280;66064;50.226;14.344;2023-05-10T01:15:07;99114.97;;;8.22;67.11
77112;BME280;66064;50.226;14.344;2023-05-10T01:17:35;99113.97;;;8.15;67.65
77112;BME280;66064;50.226;14.344;2023-05-10T01:20:03;99110.47;;;8.16;67.27
77112;BME280;66064;50.226;14.344;2023-05-10T01:22:38;99112.31;;;8.22;67.43
77112;BME280;66064;50.226;14.344;2023-05-10T01:28:23;99109.53;;;8.13;67.71
77112;BME280;66064;50.226;14.344;2023-05-10T01:34:02;99100.66;;;8.07;68.13
77112;BME280;66064;50.226;14.344;2023-05-10T01:36:45;99100.72;;;8.14;68.33
77112;BME280;66064;50.226;14.344;2023-05-10T01:47:12;99088.22;;;8.03;68.70
77112;BME280;66064;50.226;14.344;2023-05-10T01:49:51;99098.81;;;8.03;68.46
77112;BME280;66064;50.226;14.344;2023-05-10T01:52:25;99103.19;;;8.00;68.73
77112;BME280;66064;50.226;14.344;2023-05-10T01:54:55;99100.50;;;7.97;68.88
77112;BME280;66064;50.226;14.344;2023-05-10T01:57:27;99100.50;;;7.98;68.76
77112;BME280;66064;50.226;14.344;2023-05-10T01:59:59;99093.41;;;7.96;69.26
77112;BME280;66064;50.226;14.344;2023-05-10T02:02:28;99096.94;;;7.96;68.86
77112;BME280;66064;50.226;14.344;2023-05-10T02:04:57;99088.13;;;7.94;68.96
77112;BME280;66064;50.226;14.344;2023-05-10T02:07:24;99093.41;;;7.94;69.18
77112;BME280;66064;50.226;14.344;2023-05-10T02:09:51;99094.25;;;7.92;69.66
77112;BME280;66064;50.226;14.344;2023-05-10T02:12:18;99102.13;;;7.86;69.73
77112;BME280;66064;50.226;14.344;2023-05-10T02:14:47;99106.44;;;7.78;70.25
77112;BME280;66064;50.226;14.344;2023-05-10T02:17:14;99102.94;;;7.82;70.22
77112;BME280;66064;50.226;14.344;2023-05-10T02:19:41;99095.91;;;7.84;69.99
77112;BME280;66064;50.226;14.344;2023-05-10T02:22:09;99107.31;;;7.77;70.23
77112;BME280;66064;50.226;14.344;2023-05-10T02:24:36;99101.94;;;7.72;70.83
77112;BME280;66064;50.226;14.344;2023-05-10T02:27:03;99093.88;;;7.63;70.83
77112;BME280;66064;50.226;14.344;2023-05-10T02:29:31;99107.13;;;7.66;71.16
77112;BME280;66064;50.226;14.344;2023-05-10T02:31:58;99102.66;;;7.63;71.23
77112;BME280;66064;50.226;14.344;2023-05-10T02:34:27;99100.91;;;7.62;71.02
77112;BME280;66064;50.226;14.344;2023-05-10T02:36:53;99099.16;;;7.64;71.16
77112;BME280;66064;50.226;14.344;2023-05-10T02:39:21;99093.84;;;7.64;71.19
77112;BME280;66064;50.226;14.344;2023-05-10T02:41:49;99101.72;;;7.57;71.55
77112;BME280;66064;50.226;14.344;2023-05-10T02:44:18;99090.06;;;7.47;71.66
77112;BME280;66064;50.226;14.344;2023-05-10T02:46:45;99092.06;;;7.60;71.38
77112;BME280;66064;50.226;14.344;2023-05-10T02:49:12;99085.84;;;7.58;71.49
77112;BME280;66064;50.226;14.344;2023-05-10T02:51:42;99083.09;;;7.52;71.08
77112;BME280;66064;50.226;14.344;2023-05-10T02:54:18;99092.81;;;7.52;71.87
77112;BME280;66064;50.226;14.344;2023-05-10T02:56:50;99090.09;;;7.49;71.87
77112;BME280;66064;50.226;14.344;2023-05-10T02:59:17;99077.66;;;7.42;72.04
77112;BME280;66064;50.226;14.344;2023-05-10T03:01:43;99074.16;;;7.44;72.22
77112;BME280;66064;50.226;14.344;2023-05-10T03:04:09;99086.56;;;7.48;72.07
77112;BME280;66064;50.226;14.344;2023-05-10T03:06:34;99084.75;;;7.44;72.35
77112;BME280;66064;50.226;14.344;2023-05-10T03:09:03;99096.28;;;7.49;72.13
77112;BME280;66064;50.226;14.344;2023-05-10T03:11:43;99096.22;;;7.43;72.66
77112;BME280;66064;50.226;14.344;2023-05-10T03:14:21;99095.25;;;7.38;73.08
77112;BME280;66064;50.226;14.344;2023-05-10T03:19:52;99097.91;;;7.40;72.60
77112;BME280;66064;50.226;14.344;2023-05-10T03:22:47;99078.53;;;7.41;72.77
77112;BME280;66064;50.226;14.344;2023-05-10T03:25:15;99072.38;;;7.43;72.51
77112;BME280;66064;50.226;14.344;2023-05-10T03:27:43;99080.31;;;7.42;72.67
77112;BME280;66064;50.226;14.344;2023-05-10T03:30:11;99079.38;;;7.38;73.13
77112;BME280;66064;50.226;14.344;2023-05-10T03:32:38;99088.31;;;7.46;72.75
77112;BME280;66064;50.226;14.344;2023-05-10T03:35:10;99098.91;;;7.46;73.07
77112;BME280;66064;50.226;14.344;2023-05-10T03:37:37;99107.72;;;7.45;72.91
77112;BME280;66064;50.226;14.344;2023-05-10T03:40:03;99111.19;;;7.41;73.40
77112;BME280;66064;50.226;14.344;2023-05-10T03:42:29;99100.28;;;7.23;73.68
77112;BME280;66064;50.226;14.344;2023-05-10T03:44:56;99115.28;;;7.22;74.38
77112;BME280;66064;50.226;14.344;2023-05-10T03:47:24;99123.13;;;7.18;74.81
77112;BME280;66064;50.226;14.344;2023-05-10T03:49:52;99122.25;;;7.17;74.85
77112;BME280;66064;50.226;14.344;2023-05-10T03:52:18;99105.47;;;7.17;74.40
77112;BME280;66064;50.226;14.344;2023-05-10T03:54:44;99126.88;;;7.29;74.41
77112;BME280;66064;50.226;14.344;2023-05-10T03:57:10;99126.94;;;7.33;74.39
77112;BME280;66064;50.226;14.344;2023-05-10T03:59:37;99125.41;;;7.49;73.65
77112;BME280;66064;50.226;14.344;2023-05-10T04:02:04;99122.56;;;7.96;72.74
77112;BME280;66064;50.226;14.344;2023-05-10T04:04:31;99117.00;;;8.41;71.29
77112;BME280;66064;50.226;14.344;2023-05-10T04:06:57;99121.81;;;8.78;68.62
77112;BME280;66064;50.226;14.344;2023-05-10T04:09:23;99104.41;;;9.06;67.63
77112;BME280;66064;50.226;14.344;2023-05-10T04:11:49;99109.13;;;9.44;66.25
77112;BME280;66064;50.226;14.344;2023-05-10T04:14:18;99113.75;;;9.69;65.67
77112;BME280;66064;50.226;14.344;2023-05-10T04:16:44;99102.03;;;9.43;65.64
77112;BME280;66064;50.226;14.344;2023-05-10T04:19:11;99104.91;;;9.76;65.27
77112;BME280;66064;50.226;14.344;2023-05-10T04:21:37;99099.00;;;10.19;63.54
77112;BME280;66064;50.226;14.344;2023-05-10T04:24:03;99099.03;;;10.31;62.50
77112;BME280;66064;50.226;14.344;2023-05-10T04:26:30;99098.03;;;10.12;63.16
77112;BME280;66064;50.226;14.344;2023-05-10T04:28:57;99102.31;;;9.81;64.41
77112;BME280;66064;50.226;14.344;2023-05-10T04:31:22;99103.16;;;9.77;64.42
77112;BME280;66064;50.226;14.344;2023-05-10T04:33:48;99099.66;;;9.84;64.38
77112;BME280;66064;50.226;14.344;2023-05-10T04:36:15;99095.25;;;9.85;64.36
77112;BME280;66064;50.226;14.344;2023-05-10T04:38:41;99098.94;;;10.12;63.42
77112;BME280;66064;50.226;14.344;2023-05-10T04:41:09;99093.69;;;10.20;63.47
77112;BME280;66064;50.226;14.344;2023-05-10T04:43:36;99096.47;;;10.50;62.37
77112;BME280;66064;50.226;14.344;2023-05-10T04:46:03;99098.28;;;10.76;61.67
77112;BME280;66064;50.226;14.344;2023-05-10T04:48:29;99096.53;;;11.05;60.00
77112;BME280;66064;50.226;14.344;2023-05-10T04:50:55;99088.53;;;11.54;58.28
77112;BME280;66064;50.226;14.344;2023-05-10T04:53:22;99093.88;;;11.63;57.74
77112;BME280;66064;50.226;14.344;2023-05-10T04:55:48;99083.13;;;12.13;57.58
77112;BME280;66064;50.226;14.344;2023-05-10T04:58:14;99083.78;;;12.66;54.58
77112;BME280;66064;50.226;14.344;2023-05-10T05:00:40;99086.09;;;13.16;53.39
77112;BME280;66064;50.226;14.344;2023-05-10T05:03:07;99090.53;;;13.21;52.78
77112;BME280;66064;50.226;14.344;2023-05-10T05:05:33;99082.47;;;13.29;53.18
77112;BME280;66064;50.226;14.344;2023-05-10T05:07:59;99082.16;;;13.62;52.90
77112;BME280;66064;50.226;14.344;2023-05-10T05:10:25;99083.22;;;13.45;52.67
77112;BME280;66064;50.226;14.344;2023-05-10T05:12:51;99072.66;;;14.14;50.69
77112;BME280;66064;50.226;14.344;2023-05-10T05:15:17;99084.53;;;13.91;51.08
77112;BME280;66064;50.226;14.344;2023-05-10T05:17:43;99067.94;;;14.37;50.73
77112;BME280;66064;50.226;14.344;2023-05-10T05:20:09;99086.53;;;15.12;48.78
77112;BME280;66064;50.226;14.344;2023-05-10T05:22:36;99086.44;;;14.58;49.58
77112;BME280;66064;50.226;14.344;2023-05-10T05:25:03;99086.19;;;15.33;47.98
77112;BME280;66064;50.226;14.344;2023-05-10T05:27:29;99081.00;;;15.75;46.51
77112;BME280;66064;50.226;14.344;2023-05-10T05:29:56;99072.44;;;16.47;45.48
77112;BME280;66064;50.226;14.344;2023-05-10T05:32:23;99072.13;;;16.61;44.25
77112;BME280;66064;50.226;14.344;2023-05-10T05:34:49;99079.41;;;16.13;46.33
77112;BME280;66064;50.226;14.344;2023-05-10T05:37:18;99080.16;;;16.62;44.52
77112;BME280;66064;50.226;14.344;2023-05-10T05:39:44;99081.56;;;17.56;42.34
77112;BME280;66064;50.226;14.344;2023-05-10T05:42:12;99069.22;;;17.84;41.40
77112;BME280;66064;50.226;14.344;2023-05-10T05:44:38;99085.38;;;17.10;43.11
77112;BME280;66064;50.226;14.344;2023-05-10T05:47:05;99074.59;;;17.48;42.70
77112;BME280;66064;50.226;14.344;2023-05-10T05:49:32;99066.75;;;18.07;41.37
77112;BME280;66064;50.226;14.344;2023-05-10T05:51:59;99073.88;;;19.29;39.94
77112;BME280;66064;50.226;14.344;2023-05-10T05:54:26;99075.47;;;18.48;40.42
77112;BME280;66064;50.226;14.344;2023-05-10T05:57:00;99075.19;;;18.26;40.86
77112;BME280;66064;50.226;14.344;2023-05-10T05:59:26;99080.53;;;18.60;39.68
77112;BME280;66064;50.226;14.344;2023-05-10T06:01:52;99063.38;;;18.32;40.74
77112;BME280;66064;50.226;14.344;2023-05-10T06:04:18;99082.06;;;18.69;40.17
77112;BME280;66064;50.226;14.344;2023-05-10T06:06:45;99082.94;;;19.54;38.65
77112;BME280;66064;50.226;14.344;2023-05-10T06:09:11;99054.09;;;19.56;37.75
77112;BME280;66064;50.226;14.344;2023-05-10T06:11:38;99069.44;;;20.31;37.50
77112;BME280;66064;50.226;14.344;2023-05-10T06:14:04;99065.59;;;20.38;36.43
77112;BME280;66064;50.226;14.344;2023-05-10T06:16:31;99063.69;;;20.41;36.76
77112;BME280;66064;50.226;14.344;2023-05-10T06:18:57;99069.03;;;20.66;35.19
77112;BME280;66064;50.226;14.344;2023-05-10T06:21:23;99075.66;;;19.01;38.72
77112;BME280;66064;50.226;14.344;2023-05-10T06:23:48;99061.66;;;19.72;37.46
77112;BME280;66064;50.226;14.344;2023-05-10T06:26:15;99078.53;;;19.52;38.13
77112;BME280;66064;50.226;14.344;2023-05-10T06:28:40;99069.13;;;19.90;37.31
77112;BME280;66064;50.226;14.344;2023-05-10T06:31:07;99063.75;;;20.40;37.15
77112;BME280;66064;50.226;14.344;2023-05-10T06:33:33;99067.44;;;21.51;35.26
77112;BME280;66064;50.226;14.344;2023-05-10T06:35:59;99079.84;;;20.89;35.96
77112;BME280;66064;50.226;14.344;2023-05-10T06:38:25;99069.88;;;20.18;36.42
77112;BME280;66064;50.226;14.344;2023-05-10T06:40:51;99061.78;;;21.35;35.31
77112;BME280;66064;50.226;14.344;2023-05-10T06:43:17;99059.16;;;21.55;33.87
77112;BME280;66064;50.226;14.344;2023-05-10T06:45:43;99064.44;;;22.60;32.99
77112;BME280;66064;50.226;14.344;2023-05-10T06:48:09;99054.34;;;23.75;30.93
77112;BME280;66064;50.226;14.344;2023-05-10T06:50:35;99049.81;;;24.60;30.90
77112;BME280;66064;50.226;14.344;2023-05-10T06:53:01;99056.59;;;25.33;28.52
77112;BME280;66064;50.226;14.344;2023-05-10T06:55:27;99057.31;;;23.70;30.13
77112;BME280;66064;50.226;14.344;2023-05-10T06:57:53;99050.00;;;24.57;29.38
77112;BME280;66064;50.226;14.344;2023-05-10T07:00:20;99057.72;;;24.31;29.08
77112;BME280;66064;50.226;14.344;2023-05-10T07:02:46;99039.69;;;25.73;28.70
77112;BME280;66064;50.226;14.344;2023-05-10T07:05:13;99047.97;;;25.40;27.84
77112;BME280;66064;50.226;14.344;2023-05-10T07:07:39;99054.16;;;24.97;28.94
77112;BME280;66064;50.226;14.344;2023-05-10T07:10:06;99040.19;;;24.70;28.93
77112;BME280;66064;50.226;14.344;2023-05-10T07:12:32;99056.97;;;24.45;29.60
77112;BME280;66064;50.226;14.344;2023-05-10T07:14:59;99042.88;;;25.50;28.55
77112;BME280;66064;50.226;14.344;2023-05-10T07:17:25;99048.34;;;24.37;29.79
77112;BME280;66064;50.226;14.344;2023-05-10T07:19:51;99045.59;;;25.50;28.20
77112;BME280;66064;50.226;14.344;2023-05-10T07:22:17;99046.97;;;24.46;28.85
77112;BME280;66064;50.226;14.344;2023-05-10T07:24:43;99049.00;;;24.25;31.10
77112;BME280;66064;50.226;14.344;2023-05-10T07:27:09;99040.13;;;24.87;28.76
77112;BME280;66064;50.226;14.344;2023-05-10T07:29:35;99045.19;;;26.62;27.58
77112;BME280;66064;50.226;14.344;2023-05-10T07:32:02;99034.22;;;26.33;26.67
77112;BME280;66064;50.226;14.344;2023-05-10T07:34:28;99036.94;;;25.12;28.33
77112;BME280;66064;50.226;14.344;2023-05-10T07:36:58;99040.81;;;27.43;25.79
77112;BME280;66064;50.226;14.344;2023-05-10T07:39:24;99030.16;;;28.95;23.14
77112;BME280;66064;50.226;14.344;2023-05-10T07:41:50;99049.47;;;27.08;25.60
77112;BME280;66064;50.226;14.344;2023-05-10T07:44:16;99033.41;;;27.31;25.55
77112;BME280;66064;50.226;14.344;2023-05-10T07:46:44;99043.31;;;26.91;25.97
77112;BME280;66064;50.226;14.344;2023-05-10T07:49:10;99039.16;;;29.34;23.33
77112;BME280;66064;50.226;14.344;2023-05-10T07:51:36;99048.56;;;26.37;25.72
77112;BME280;66064;50.226;14.344;2023-05-10T07:54:02;99044.59;;;26.71;26.20
77112;BME280;66064;50.226;14.344;2023-05-10T07:56:30;99036.38;;;28.59;24.05
77112;BME280;66064;50.226;14.344;2023-05-10T07:59:02;99039.69;;;28.39;24.21
77112;BME280;66064;50.226;14.344;2023-05-10T08:01:34;99028.41;;;28.56;24.33
77112;BME280;66064;50.226;14.344;2023-05-10T08:04:01;99031.69;;;30.53;23.55
77112;BME280;66064;50.226;14.344;2023-05-10T08:06:27;99029.06;;;31.75;20.35
77112;BME280;66064;50.226;14.344;2023-05-10T08:08:55;99041.75;;;30.77;20.32
77112;BME280;66064;50.226;14.344;2023-05-10T08:11:21;99034.28;;;30.33;21.69
77112;BME280;66064;50.226;14.344;2023-05-10T08:13:49;99031.53;;;30.68;22.53
77112;BME280;66064;50.226;14.344;2023-05-10T08:16:15;99016.38;;;32.78;21.05
77112;BME280;66064;50.226;14.344;2023-05-10T08:18:44;99016.75;;;32.94;18.42
77112;BME280;66064;50.226;14.344;2023-05-10T08:21:10;99030.56;;;29.51;21.24
77112;BME280;66064;50.226;14.344;2023-05-10T08:23:37;99021.00;;;29.80;21.25
77112;BME280;66064;50.226;14.344;2023-05-10T08:26:03;99017.13;;;31.85;19.31
77112;BME280;66064;50.226;14.344;2023-05-10T08:28:29;99018.88;;;31.86;18.78
77112;BME280;66064;50.226;14.344;2023-05-10T08:30:55;99016.09;;;32.81;17.73
77112;BME280;66064;50.226;14.344;2023-05-10T08:33:21;99023.91;;;32.34;18.67
77112;BME280;66064;50.226;14.344;2023-05-10T08:35:47;99013.25;;;32.92;17.02
77112;BME280;66064;50.226;14.344;2023-05-10T08:38:13;99024.94;;;31.69;18.52
77112;BME280;66064;50.226;14.344;2023-05-10T08:40:43;99019.19;;;34.54;17.60
77112;BME280;66064;50.226;14.344;2023-05-10T08:43:12;99019.47;;;33.93;17.73
77112;BME280;66064;50.226;14.344;2023-05-10T08:45:40;99024.72;;;32.25;18.94
77112;BME280;66064;50.226;14.344;2023-05-10T08:48:07;99021.94;;;33.96;17.26
77112;BME280;66064;50.226;14.344;2023-05-10T08:50:38;99023.09;;;34.42;17.66
77112;BME280;66064;50.226;14.344;2023-05-10T08:53:10;99019.03;;;34.56;17.16
77112;BME280;66064;50.226;14.344;2023-05-10T08:55:36;99026.69;;;35.46;16.16
77112;BME280;66064;50.226;14.344;2023-05-10T08:58:07;99030.47;;;33.55;17.32
77112;BME280;66064;50.226;14.344;2023-05-10T09:00:34;99019.66;;;32.51;17.96
77112;BME280;66064;50.226;14.344;2023-05-10T09:03:02;99021.78;;;32.68;17.93
77112;BME280;66064;50.226;14.344;2023-05-10T09:05:28;99015.84;;;32.21;18.85
77112;BME280;66064;50.226;14.344;2023-05-10T09:07:54;99023.66;;;30.28;19.84
77112;BME280;66064;50.226;14.344;2023-05-10T09:10:21;99025.88;;;30.69;20.14
77112;BME280;66064;50.226;14.344;2023-05-10T09:12:48;99018.13;;;32.79;19.19
77112;BME280;66064;50.226;14.344;2023-05-10T09:15:15;99016.59;;;32.23;17.46
77112;BME280;66064;50.226;14.344;2023-05-10T09:17:42;99001.59;;;33.78;16.76
77112;BME280;66064;50.226;14.344;2023-05-10T09:20:09;99019.72;;;33.12;17.06
77112;BME280;66064;50.226;14.344;2023-05-10T09:22:36;99019.41;;;33.15;17.52
77112;BME280;66064;50.226;14.344;2023-05-10T09:25:08;99023.19;;;33.14;16.91
77112;BME280;66064;50.226;14.344;2023-05-10T09:27:35;99018.66;;;34.88;16.41
77112;BME280;66064;50.226;14.344;2023-05-10T09:30:03;99017.97;;;35.13;15.61
77112;BME280;66064;50.226;14.344;2023-05-10T09:32:39;99007.34;;;36.26;14.39
77112;BME280;66064;50.226;14.344;2023-05-10T09:35:13;99021.44;;;33.53;17.19
77112;BME280;66064;50.226;14.344;2023-05-10T09:37:41;99020.41;;;32.32;18.67
77112;BME280;66064;50.226;14.344;2023-05-10T09:40:08;99021.94;;;31.72;19.48
77112;BME280;66064;50.226;14.344;2023-05-10T09:42:36;99027.97;;;33.42;17.99
77112;BME280;66064;50.226;14.344;2023-05-10T09:45:04;99009.16;;;34.15;18.10
77112;BME280;66064;50.226;14.344;2023-05-10T09:47:36;99019.81;;;32.28;18.29
77112;BME280;66064;50.226;14.344;2023-05-10T09:50:03;99018.59;;;31.46;18.97
77112;BME280;66064;50.226;14.344;2023-05-10T09:52:31;99011.00;;;32.14;19.47
77112;BME280;66064;50.226;14.344;2023-05-10T09:55:11;99014.91;;;30.23;20.46
77112;BME280;66064;50.226;14.344;2023-05-10T09:57:37;99014.53;;;31.18;20.61
77112;BME280;66064;50.226;14.344;2023-05-10T10:00:04;98999.25;;;31.37;19.94
77112;BME280;66064;50.226;14.344;2023-05-10T10:02:31;98998.81;;;31.95;20.38
77112;BME280;66064;50.226;14.344;2023-05-10T10:04:57;99003.47;;;33.18;18.74
77112;BME280;66064;50.226;14.344;2023-05-10T10:07:24;99003.53;;;31.07;20.27
77112;BME280;66064;50.226;14.344;2023-05-10T10:09:53;99003.31;;;31.96;18.80
77112;BME280;66064;50.226;14.344;2023-05-10T10:12:19;99011.59;;;30.42;20.51
77112;BME280;66064;50.226;14.344;2023-05-10T10:14:47;99007.97;;;30.52;20.23
77112;BME280;66064;50.226;14.344;2023-05-10T10:17:13;99016.72;;;30.35;20.62
77112;BME280;66064;50.226;14.344;2023-05-10T10:19:41;99003.44;;;31.52;19.48
77112;BME280;66064;50.226;14.344;2023-05-10T10:22:07;99010.56;;;29.97;20.58
77112;BME280;66064;50.226;14.344;2023-05-10T10:24:33;99005.63;;;28.30;22.89
77112;BME280;66064;50.226;14.344;2023-05-10T10:27:07;99016.88;;;28.26;22.59
77112;BME280;66064;50.226;14.344;2023-05-10T10:29:41;99012.84;;;27.52;24.65
77112;BME280;66064;50.226;14.344;2023-05-10T10:35:21;98992.56;;;31.61;20.59
77112;BME280;66064;50.226;14.344;2023-05-10T10:37:50;98987.66;;;32.29;19.39
77112;BME280;66064;50.226;14.344;2023-05-10T10:40:31;98987.75;;;32.48;18.71
77112;BME280;66064;50.226;14.344;2023-05-10T10:42:58;98992.59;;;32.35;19.23
77112;BME280;66064;50.226;14.344;2023-05-10T10:45:59;98989.06;;;33.05;18.42
77112;BME280;66064;50.226;14.344;2023-05-10T10:48:33;98987.84;;;32.37;18.99
77112;BME280;66064;50.226;14.344;2023-05-10T10:51:00;98995.91;;;31.33;20.88
77112;BME280;66064;50.226;14.344;2023-05-10T10:53:27;98990.66;;;29.10;21.94
77112;BME280;66064;50.226;14.344;2023-05-10T10:56:05;98979.19;;;29.77;22.23
77112;BME280;66064;50.226;14.344;2023-05-10T10:58:33;98984.53;;;29.67;21.71
77112;BME280;66064;50.226;14.344;2023-05-10T11:01:18;98977.13;;;29.91;21.01
77112;BME280;66064;50.226;14.344;2023-05-10T11:04:18;98982.56;;;30.95;22.47
77112;BME280;66064;50.226;14.344;2023-05-10T11:06:44;98963.53;;;32.21;21.22
77112;BME280;66064;50.226;14.344;2023-05-10T11:09:11;98966.66;;;32.17;19.71
77112;BME280;66064;50.226;14.344;2023-05-10T11:11:54;98972.09;;;30.67;20.18
77112;BME280;66064;50.226;14.344;2023-05-10T11:14:25;98973.06;;;29.73;21.18
77112;BME280;66064;50.226;14.344;2023-05-10T11:16:51;98971.75;;;30.36;20.55
77112;BME280;66064;50.226;14.344;2023-05-10T11:19:18;98963.06;;;30.87;21.02
77112;BME280;66064;50.226;14.344;2023-05-10T11:24:14;98967.56;;;29.02;23.06
77112;BME280;66064;50.226;14.344;2023-05-10T11:26:40;98967.41;;;30.45;23.93
77112;BME280;66064;50.226;14.344;2023-05-10T11:29:06;98962.03;;;31.21;21.02
77112;BME280;66064;50.226;14.344;2023-05-10T11:31:33;98956.72;;;32.05;19.43
77112;BME280;66064;50.226;14.344;2023-05-10T11:34:00;98969.53;;;31.08;19.04
77112;BME280;66064;50.226;14.344;2023-05-10T11:36:32;98963.03;;;31.95;19.63
77112;BME280;66064;50.226;14.344;2023-05-10T11:38:59;98948.13;;;32.70;18.15
77112;BME280;66064;50.226;14.344;2023-05-10T11:41:30;98960.81;;;33.22;18.67
77112;BME280;66064;50.226;14.344;2023-05-10T11:43:57;98963.88;;;30.20;20.31
77112;BME280;66064;50.226;14.344;2023-05-10T11:46:27;98975.00;;;29.60;21.21
77112;BME280;66064;50.226;14.344;2023-05-10T11:48:57;98974.56;;;29.66;22.01
77112;BME280;66064;50.226;14.344;2023-05-10T11:51:24;98962.38;;;28.73;22.25
77112;BME280;66064;50.226;14.344;2023-05-10T11:53:53;98970.94;;;28.31;23.20
77112;BME280;66064;50.226;14.344;2023-05-10T11:56:19;98971.06;;;26.68;25.41
77112;BME280;66064;50.226;14.344;2023-05-10T11:58:53;98977.25;;;26.57;25.88
77112;BME280;66064;50.226;14.344;2023-05-10T12:01:18;98974.59;;;26.27;26.08
77112;BME280;66064;50.226;14.344;2023-05-10T12:03:45;98976.59;;;25.04;27.53
77112;BME280;66064;50.226;14.344;2023-05-10T12:06:11;98974.19;;;24.00;29.67
77112;BME280;66064;50.226;14.344;2023-05-10T12:08:44;98980.03;;;23.58;29.48
77112;BME280;66064;50.226;14.344;2023-05-10T12:11:12;98961.31;;;23.87;31.68
77112;BME280;66064;50.226;14.344;2023-05-10T12:13:43;98978.06;;;23.43;30.36
77112;BME280;66064;50.226;14.344;2023-05-10T12:16:22;98992.31;;;22.93;31.23
77112;BME280;66064;50.226;14.344;2023-05-10T12:18:58;98992.56;;;22.70;31.92
77112;BME280;66064;50.226;14.344;2023-05-10T12:21:26;98983.75;;;22.65;32.32
77112;BME280;66064;50.226;14.344;2023-05-10T12:23:56;98989.03;;;22.68;33.74
77112;BME280;66064;50.226;14.344;2023-05-10T12:26:24;98997.66;;;22.76;31.32
77112;BME280;66064;50.226;14.344;2023-05-10T12:29:17;98993.44;;;22.89;31.69
77112;BME280;66064;50.226;14.344;2023-05-10T12:31:57;98988.72;;;22.74;32.04
77112;BME280;66064;50.226;14.344;2023-05-10T12:34:30;98994.13;;;22.74;31.69
77112;BME280;66064;50.226;14.344;2023-05-10T12:36:57;98995.78;;;22.97;31.32
77112;BME280;66064;50.226;14.344;2023-05-10T12:39:23;98992.44;;;23.09;31.90
77112;BME280;66064;50.226;14.344;2023-05-10T12:41:49;98982.50;;;22.72;31.82
77112;BME280;66064;50.226;14.344;2023-05-10T12:44:16;98994.84;;;22.79;32.77
77112;BME280;66064;50.226;14.344;2023-05-10T12:46:42;98991.06;;;22.44;33.08
77112;BME280;66064;50.226;14.344;2023-05-10T12:49:08;98985.19;;;22.34;33.07
77112;BME280;66064;50.226;14.344;2023-05-10T12:51:34;98985.94;;;21.97;33.22
77112;BME280;66064;50.226;14.344;2023-05-10T12:54:00;98982.50;;;22.14;33.92
77112;BME280;66064;50.226;14.344;2023-05-10T12:56:26;98999.13;;;21.86;34.29
77112;BME280;66064;50.226;14.344;2023-05-10T12:58:52;98987.13;;;21.72;35.33
77112;BME280;66064;50.226;14.344;2023-05-10T13:01:18;98994.16;;;21.76;35.96
77112;BME280;66064;50.226;14.344;2023-05-10T13:03:45;98988.06;;;21.71;36.80
77112;BME280;66064;50.226;14.344;2023-05-10T13:06:10;99000.47;;;21.56;36.01
77112;BME280;66064;50.226;14.344;2023-05-10T13:08:39;98990.28;;;21.61;35.51
77112;BME280;66064;50.226;14.344;2023-05-10T13:11:05;98988.41;;;21.83;36.51
77112;BME280;66064;50.226;14.344;2023-05-10T13:13:31;98995.38;;;21.69;36.08
77112;BME280;66064;50.226;14.344;2023-05-10T13:15:57;98991.97;;;21.63;36.42
77112;BME280;66064;50.226;14.344;2023-05-10T13:18:23;98983.13;;;21.80;36.96
77112;BME280;66064;50.226;14.344;2023-05-10T13:20:50;98992.94;;;21.83;36.72